sensor_id;sensor_type;location;lat;lon;timestamp;temperature;humidity
5334;DHT22;2689;50.954;7.116;2024-02-26T00:01:54;8.80;93.00
5334;DHT22;2689;50.954;7.116;2024-02-26T00:04:21;8.70;93.00
5334;DHT22;2689;50.954;7.116;2024-02-26T00:06:49;8.70;93.40
5334;DHT22;2689;50.954;7.116;2024-02-26T00:09:19;8.60;93.00
5334;DHT22;2689;50.954;7.116;2024-02-26T00:11:46;8.70;93.30
5334;DHT22;2689;50.954;7.116;2024-02-26T00:14:13;8.70;93.80
5334;DHT22;2689;50.954;7.116;2024-02-26T00:16:40;8.80;94.10
5334;DHT22;2689;50.954;7.116;2024-02-26T00:19:07;8.70;94.30
5334;DHT22;2689;50.954;7.116;2024-02-26T00:21:34;8.60;94.60
5334;DHT22;2689;50.954;7.116;2024-02-26T00:24:03;8.70;94.80
5334;DHT22;2689;50.954;7.116;2024-02-26T00:26:30;8.70;94.80
5334;DHT22;2689;50.954;7.116;2024-02-26T00:28:57;8.60;94.90
5334;DHT22;2689;50.954;7.116;2024-02-26T00:31:24;8.60;95.20
5334;DHT22;2689;50.954;7.116;2024-02-26T00:33:51;8.60;95.30
5334;DHT22;2689;50.954;7.116;2024-02-26T00:36:18;8.50;95.20
5334;DHT22;2689;50.954;7.116;2024-02-26T00:38:45;8.50;95.60
5334;DHT22;2689;50.954;7.116;2024-02-26T00:41:18;8.50;95.90
5334;DHT22;2689;50.954;7.116;2024-02-26T00:43:57;8.50;95.90
5334;DHT22;2689;50.954;7.116;2024-02-26T00:46:34;8.40;96.00
5334;DHT22;2689;50.954;7.116;2024-02-26T00:49:05;8.30;96.40
5334;DHT22;2689;50.954;7.116;2024-02-26T00:51:34;8.30;96.70
5334;DHT22;2689;50.954;7.116;2024-02-26T00:54:02;8.20;97.00
5334;DHT22;2689;50.954;7.116;2024-02-26T00:56:30;8.20;97.20
5334;DHT22;2689;50.954;7.116;2024-02-26T00:58:58;8.10;97.60
5334;DHT22;2689;50.954;7.116;2024-02-26T01:01:25;8.20;97.40
5334;DHT22;2689;50.954;7.116;2024-02-26T01:04:00;8.10;97.60
5334;DHT22;2689;50.954;7.116;2024-02-26T01:06:35;8.10;97.50
5334;DHT22;2689;50.954;7.116;2024-02-26T01:09:16;8.10;97.00
5334;DHT22;2689;50.954;7.116;2024-02-26T01:11:51;8.10;97.10
5334;DHT22;2689;50.954;7.116;2024-02-26T01:14:24;8.20;97.30
5334;DHT22;2689;50.954;7.116;2024-02-26T01:17:34;8.20;97.40
5334;DHT22;2689;50.954;7.116;2024-02-26T01:20:47;8.20;97.60
5334;DHT22;2689;50.954;7.116;2024-02-26T01:24:14;8.00;98.00
5334;DHT22;2689;50.954;7.116;2024-02-26T01:26:47;7.90;98.50
5334;DHT22;2689;50.954;7.116;2024-02-26T01:32:33;7.90;99.20
5334;DHT22;2689;50.954;7.116;2024-02-26T01:36:10;7.80;99.90
5334;DHT22;2689;50.954;7.116;2024-02-26T01:40:19;7.80;99.90
5334;DHT22;2689;50.954;7.116;2024-02-26T01:42:37;7.80;99.90
5334;DHT22;2689;50.954;7.116;2024-02-26T01:45:15;7.70;99.90
5334;DHT22;2689;50.954;7.116;2024-02-26T01:50:57;7.60;99.90
5334;DHT22;2689;50.954;7.116;2024-02-26T01:53:26;7.60;99.90
5334;DHT22;2689;50.954;7.116;2024-02-26T01:55:53;7.60;99.90
5334;DHT22;2689;50.954;7.116;2024-02-26T01:58:20;7.60;99.90
5334;DHT22;2689;50.954;7.116;2024-02-26T02:00:49;7.60;99.90
5334;DHT22;2689;50.954;7.116;2024-02-26T02:03:16;7.60;99.90
5334;DHT22;2689;50.954;7.116;2024-02-26T02:05:45;7.60;99.90
5334;DHT22;2689;50.954;7.116;2024-02-26T02:08:16;7.50;99.90
5334;DHT22;2689;50.954;7.116;2024-02-26T02:10:55;7.50;99.90
5334;DHT22;2689;50.954;7.116;2024-02-26T02:13:28;7.50;99.90
5334;DHT22;2689;50.954;7.116;2024-02-26T02:15:56;7.50;99.90
5334;DHT22;2689;50.954;7.116;2024-02-26T02:21:12;7.40;99.90
5334;DHT22;2689;50.954;7.116;2024-02-26T02:23:39;7.50;99.90
5334;DHT22;2689;50.954;7.116;2024-02-26T02:26:12;7.50;99.90
5334;DHT22;2689;50.954;7.116;2024-02-26T02:28:44;7.40;99.90
5334;DHT22;2689;50.954;7.116;2024-02-26T02:31:13;7.40;99.90
5334;DHT22;2689;50.954;7.116;2024-02-26T02:33:44;7.40;99.90
5334;DHT22;2689;50.954;7.116;2024-02-26T02:37:20;7.30;99.90
5334;DHT22;2689;50.954;7.116;2024-02-26T02:39:22;7.40;99.90
5334;DHT22;2689;50.954;7.116;2024-02-26T02:41:55;7.40;99.90
5334;DHT22;2689;50.954;7.116;2024-02-26T02:44:23;7.40;99.90
5334;DHT22;2689;50.954;7.116;2024-02-26T02:46:59;7.40;99.90
5334;DHT22;2689;50.954;7.116;2024-02-26T02:49:27;7.40;99.90
5334;DHT22;2689;50.954;7.116;2024-02-26T02:52:03;7.40;99.90
5334;DHT22;2689;50.954;7.116;2024-02-26T02:54:30;7.30;99.90
5334;DHT22;2689;50.954;7.116;2024-02-26T02:56:57;7.40;99.90
5334;DHT22;2689;50.954;7.116;2024-02-26T02:59:27;7.30;99.90
5334;DHT22;2689;50.954;7.116;2024-02-26T03:01:56;7.40;99.90
5334;DHT22;2689;50.954;7.116;2024-02-26T03:04:23;7.40;99.90
5334;DHT22;2689;50.954;7.116;2024-02-26T03:06:57;7.40;99.90
5334;DHT22;2689;50.954;7.116;2024-02-26T03:09:36;7.40;99.90
5334;DHT22;2689;50.954;7.116;2024-02-26T03:12:05;7.30;99.90
5334;DHT22;2689;50.954;7.116;2024-02-26T03:18:34;7.30;99.90
5334;DHT22;2689;50.954;7.116;2024-02-26T03:34:24;7.30;99.90
5334;DHT22;2689;50.954;7.116;2024-02-26T03:36:57;7.30;99.90
5334;DHT22;2689;50.954;7.116;2024-02-26T03:42:56;7.30;99.90
5334;DHT22;2689;50.954;7.116;2024-02-26T03:46:40;7.30;99.90
5334;DHT22;2689;50.954;7.116;2024-02-26T03:55:34;7.30;99.90
5334;DHT22;2689;50.954;7.116;2024-02-26T03:58:04;7.30;99.90
5334;DHT22;2689;50.954;7.116;2024-02-26T04:02:54;7.30;99.90
5334;DHT22;2689;50.954;7.116;2024-02-26T04:03:57;7.30;99.90
5334;DHT22;2689;50.954;7.116;2024-02-26T04:06:39;7.30;99.90
5334;DHT22;2689;50.954;7.116;2024-02-26T04:12:14;7.40;99.90
5334;DHT22;2689;50.954;7.116;2024-02-26T04:15:05;7.50;99.90
5334;DHT22;2689;50.954;7.116;2024-02-26T04:18:26;7.40;99.90
5334;DHT22;2689;50.954;7.116;2024-02-26T04:21:13;7.40;99.90
5334;DHT22;2689;50.954;7.116;2024-02-26T04:23:46;7.40;99.90
5334;DHT22;2689;50.954;7.116;2024-02-26T04:26:17;7.40;99.90
5334;DHT22;2689;50.954;7.116;2024-02-26T04:28:55;7.40;99.90
5334;DHT22;2689;50.954;7.116;2024-02-26T04:31:24;7.40;99.90
5334;DHT22;2689;50.954;7.116;2024-02-26T04:33:56;7.40;99.90
5334;DHT22;2689;50.954;7.116;2024-02-26T04:36:22;7.40;99.90
5334;DHT22;2689;50.954;7.116;2024-02-26T04:38:51;7.40;99.90
5334;DHT22;2689;50.954;7.116;2024-02-26T04:41:20;7.40;99.90
5334;DHT22;2689;50.954;7.116;2024-02-26T04:43:49;7.40;99.90
5334;DHT22;2689;50.954;7.116;2024-02-26T04:46:16;7.30;99.90
5334;DHT22;2689;50.954;7.116;2024-02-26T04:48:43;7.30;99.90
5334;DHT22;2689;50.954;7.116;2024-02-26T04:51:12;7.30;99.90
5334;DHT22;2689;50.954;7.116;2024-02-26T04:53:39;7.20;99.90
5334;DHT22;2689;50.954;7.116;2024-02-26T04:56:06;7.30;99.90
5334;DHT22;2689;50.954;7.116;2024-02-26T04:58:33;7.30;99.90
5334;DHT22;2689;50.954;7.116;2024-02-26T05:01:03;7.20;99.90
5334;DHT22;2689;50.954;7.116;2024-02-26T05:03:30;7.20;99.90
5334;DHT22;2689;50.954;7.116;2024-02-26T05:05:57;7.20;99.90
5334;DHT22;2689;50.954;7.116;2024-02-26T05:08:25;7.10;99.90
5334;DHT22;2689;50.954;7.116;2024-02-26T05:10:53;7.10;99.90
5334;DHT22;2689;50.954;7.116;2024-02-26T05:13:20;7.10;99.90
5334;DHT22;2689;50.954;7.116;2024-02-26T05:15:46;7.00;99.90
5334;DHT22;2689;50.954;7.116;2024-02-26T05:18:16;7.00;99.90
5334;DHT22;2689;50.954;7.116;2024-02-26T05:20:43;6.90;99.90
5334;DHT22;2689;50.954;7.116;2024-02-26T05:23:10;7.00;99.90
5334;DHT22;2689;50.954;7.116;2024-02-26T05:25:37;7.10;99.90
5334;DHT22;2689;50.954;7.116;2024-02-26T05:28:04;7.00;99.90
5334;DHT22;2689;50.954;7.116;2024-02-26T05:30:31;7.00;99.90
5334;DHT22;2689;50.954;7.116;2024-02-26T05:32:58;6.90;99.90
5334;DHT22;2689;50.954;7.116;2024-02-26T05:35:27;6.90;99.90
5334;DHT22;2689;50.954;7.116;2024-02-26T05:37:54;6.90;99.90
5334;DHT22;2689;50.954;7.116;2024-02-26T05:40:21;7.00;99.90
5334;DHT22;2689;50.954;7.116;2024-02-26T05:42:48;7.00;99.90
5334;DHT22;2689;50.954;7.116;2024-02-26T05:45:15;7.10;99.90
5334;DHT22;2689;50.954;7.116;2024-02-26T05:47:42;7.10;99.90
5334;DHT22;2689;50.954;7.116;2024-02-26T05:50:13;7.20;99.90
5334;DHT22;2689;50.954;7.116;2024-02-26T05:52:42;7.20;99.90
5334;DHT22;2689;50.954;7.116;2024-02-26T05:55:11;7.20;99.90
5334;DHT22;2689;50.954;7.116;2024-02-26T05:57:39;7.10;99.90
5334;DHT22;2689;50.954;7.116;2024-02-26T06:00:07;7.00;99.90
5334;DHT22;2689;50.954;7.116;2024-02-26T06:02:34;7.10;99.90
5334;DHT22;2689;50.954;7.116;2024-02-26T06:05:00;7.00;99.90
5334;DHT22;2689;50.954;7.116;2024-02-26T06:07:28;7.10;99.90
5334;DHT22;2689;50.954;7.116;2024-02-26T06:09:59;7.00;99.90
5334;DHT22;2689;50.954;7.116;2024-02-26T06:12:27;7.00;99.90
5334;DHT22;2689;50.954;7.116;2024-02-26T06:14:56;6.90;99.90
5334;DHT22;2689;50.954;7.116;2024-02-26T06:17:23;6.90;99.90
5334;DHT22;2689;50.954;7.116;2024-02-26T06:19:50;6.90;99.90
5334;DHT22;2689;50.954;7.116;2024-02-26T06:22:17;6.80;99.90
5334;DHT22;2689;50.954;7.116;2024-02-26T06:24:44;6.80;99.90
5334;DHT22;2689;50.954;7.116;2024-02-26T06:27:12;6.70;99.90
5334;DHT22;2689;50.954;7.116;2024-02-26T06:29:39;6.70;99.90
5334;DHT22;2689;50.954;7.116;2024-02-26T06:32:06;6.70;99.90
5334;DHT22;2689;50.954;7.116;2024-02-26T06:34:33;6.70;99.90
5334;DHT22;2689;50.954;7.116;2024-02-26T06:37:00;6.60;99.90
5334;DHT22;2689;50.954;7.116;2024-02-26T06:39:29;6.70;99.90
5334;DHT22;2689;50.954;7.116;2024-02-26T06:41:56;6.60;99.90
5334;DHT22;2689;50.954;7.116;2024-02-26T06:44:28;6.70;99.90
5334;DHT22;2689;50.954;7.116;2024-02-26T06:46:57;6.70;99.90
5334;DHT22;2689;50.954;7.116;2024-02-26T06:49:25;6.70;99.90
5334;DHT22;2689;50.954;7.116;2024-02-26T06:51:52;6.70;99.90
5334;DHT22;2689;50.954;7.116;2024-02-26T06:54:19;6.70;99.90
5334;DHT22;2689;50.954;7.116;2024-02-26T06:56:46;6.70;99.90
5334;DHT22;2689;50.954;7.116;2024-02-26T06:59:13;6.70;99.90
5334;DHT22;2689;50.954;7.116;2024-02-26T07:01:43;6.70;99.90
5334;DHT22;2689;50.954;7.116;2024-02-26T07:04:10;6.70;99.90
5334;DHT22;2689;50.954;7.116;2024-02-26T07:06:37;6.70;99.90
5334;DHT22;2689;50.954;7.116;2024-02-26T07:09:04;6.70;99.90
5334;DHT22;2689;50.954;7.116;2024-02-26T07:11:31;6.70;99.90
5334;DHT22;2689;50.954;7.116;2024-02-26T07:13:57;6.70;99.90
5334;DHT22;2689;50.954;7.116;2024-02-26T07:16:26;6.70;99.90
5334;DHT22;2689;50.954;7.116;2024-02-26T07:18:55;6.70;99.90
5334;DHT22;2689;50.954;7.116;2024-02-26T07:21:21;6.70;99.90
5334;DHT22;2689;50.954;7.116;2024-02-26T07:23:48;6.70;99.90
5334;DHT22;2689;50.954;7.116;2024-02-26T07:26:15;6.70;99.90
5334;DHT22;2689;50.954;7.116;2024-02-26T07:28:44;6.70;99.90
5334;DHT22;2689;50.954;7.116;2024-02-26T07:31:12;6.60;99.90
5334;DHT22;2689;50.954;7.116;2024-02-26T07:33:39;6.70;99.90
5334;DHT22;2689;50.954;7.116;2024-02-26T07:36:08;6.70;99.90
5334;DHT22;2689;50.954;7.116;2024-02-26T07:38:35;6.70;99.90
5334;DHT22;2689;50.954;7.116;2024-02-26T07:41:02;6.70;99.90
5334;DHT22;2689;50.954;7.116;2024-02-26T07:43:29;6.70;99.90
5334;DHT22;2689;50.954;7.116;2024-02-26T07:45:57;6.70;99.90
5334;DHT22;2689;50.954;7.116;2024-02-26T07:48:26;6.70;99.90
5334;DHT22;2689;50.954;7.116;2024-02-26T07:50:53;6.70;99.90
5334;DHT22;2689;50.954;7.116;2024-02-26T07:53:22;6.70;99.90
5334;DHT22;2689;50.954;7.116;2024-02-26T07:55:49;6.70;99.90
5334;DHT22;2689;50.954;7.116;2024-02-26T07:58:15;6.70;99.90
5334;DHT22;2689;50.954;7.116;2024-02-26T08:00:51;6.70;99.90
5334;DHT22;2689;50.954;7.116;2024-02-26T08:03:21;6.70;99.90
5334;DHT22;2689;50.954;7.116;2024-02-26T08:06:03;6.70;99.90
5334;DHT22;2689;50.954;7.116;2024-02-26T08:08:34;6.60;99.90
5334;DHT22;2689;50.954;7.116;2024-02-26T08:11:04;6.60;99.90
5334;DHT22;2689;50.954;7.116;2024-02-26T08:13:31;6.70;99.90
5334;DHT22;2689;50.954;7.116;2024-02-26T08:15:58;6.70;99.90
5334;DHT22;2689;50.954;7.116;2024-02-26T08:18:25;6.70;99.90
5334;DHT22;2689;50.954;7.116;2024-02-26T08:20:52;6.70;99.90
5334;DHT22;2689;50.954;7.116;2024-02-26T08:23:19;6.80;99.90
5334;DHT22;2689;50.954;7.116;2024-02-26T08:25:50;6.80;99.90
5334;DHT22;2689;50.954;7.116;2024-02-26T08:28:19;6.70;99.90
5334;DHT22;2689;50.954;7.116;2024-02-26T08:30:46;6.70;99.90
5334;DHT22;2689;50.954;7.116;2024-02-26T08:33:17;6.70;99.90
5334;DHT22;2689;50.954;7.116;2024-02-26T08:35:46;6.70;99.90
5334;DHT22;2689;50.954;7.116;2024-02-26T08:38:15;6.70;99.90
5334;DHT22;2689;50.954;7.116;2024-02-26T08:40:42;6.70;99.90
5334;DHT22;2689;50.954;7.116;2024-02-26T08:43:11;6.80;99.90
5334;DHT22;2689;50.954;7.116;2024-02-26T08:45:38;6.80;99.90
5334;DHT22;2689;50.954;7.116;2024-02-26T08:48:06;6.80;99.90
5334;DHT22;2689;50.954;7.116;2024-02-26T08:50:35;6.80;99.90
5334;DHT22;2689;50.954;7.116;2024-02-26T08:53:08;6.80;99.90
5334;DHT22;2689;50.954;7.116;2024-02-26T08:55:46;6.80;99.90
5334;DHT22;2689;50.954;7.116;2024-02-26T08:58:14;6.80;99.90
5334;DHT22;2689;50.954;7.116;2024-02-26T09:00:43;6.90;99.90
5334;DHT22;2689;50.954;7.116;2024-02-26T09:03:41;6.80;99.90
5334;DHT22;2689;50.954;7.116;2024-02-26T09:06:02;6.80;99.90
5334;DHT22;2689;50.954;7.116;2024-02-26T09:08:38;6.90;99.90
5334;DHT22;2689;50.954;7.116;2024-02-26T09:11:04;6.90;99.90
5334;DHT22;2689;50.954;7.116;2024-02-26T09:13:36;6.90;99.90
5334;DHT22;2689;50.954;7.116;2024-02-26T09:17:11;6.90;99.90
5334;DHT22;2689;50.954;7.116;2024-02-26T09:19:44;6.80;99.90
5334;DHT22;2689;50.954;7.116;2024-02-26T09:22:13;6.80;99.90
5334;DHT22;2689;50.954;7.116;2024-02-26T09:27:49;6.80;99.90
5334;DHT22;2689;50.954;7.116;2024-02-26T09:30:23;6.80;99.90
5334;DHT22;2689;50.954;7.116;2024-02-26T09:32:52;6.80;99.90
5334;DHT22;2689;50.954;7.116;2024-02-26T09:35:23;6.90;99.90
5334;DHT22;2689;50.954;7.116;2024-02-26T09:37:50;6.80;99.90
5334;DHT22;2689;50.954;7.116;2024-02-26T09:40:36;6.80;99.90
5334;DHT22;2689;50.954;7.116;2024-02-26T09:43:23;6.80;99.90
5334;DHT22;2689;50.954;7.116;2024-02-26T09:46:18;6.80;99.90
5334;DHT22;2689;50.954;7.116;2024-02-26T09:48:53;6.80;99.90
5334;DHT22;2689;50.954;7.116;2024-02-26T09:51:29;6.90;99.90
5334;DHT22;2689;50.954;7.116;2024-02-26T09:54:07;6.80;99.90
5334;DHT22;2689;50.954;7.116;2024-02-26T09:56:57;6.80;99.90
5334;DHT22;2689;50.954;7.116;2024-02-26T09:59:37;6.90;99.90
5334;DHT22;2689;50.954;7.116;2024-02-26T10:02:09;6.90;99.90
5334;DHT22;2689;50.954;7.116;2024-02-26T10:04:43;6.90;99.90
5334;DHT22;2689;50.954;7.116;2024-02-26T10:07:27;6.90;99.90
5334;DHT22;2689;50.954;7.116;2024-02-26T10:10:17;6.90;99.90
5334;DHT22;2689;50.954;7.116;2024-02-26T10:12:56;6.90;99.90
5334;DHT22;2689;50.954;7.116;2024-02-26T10:15:23;6.90;99.90
5334;DHT22;2689;50.954;7.116;2024-02-26T10:17:52;7.00;99.90
5334;DHT22;2689;50.954;7.116;2024-02-26T10:20:20;7.00;99.90
5334;DHT22;2689;50.954;7.116;2024-02-26T10:22:56;7.00;99.90
5334;DHT22;2689;50.954;7.116;2024-02-26T10:25:24;6.90;99.90
5334;DHT22;2689;50.954;7.116;2024-02-26T10:28:06;7.00;99.90
5334;DHT22;2689;50.954;7.116;2024-02-26T10:31:10;7.00;99.90
5334;DHT22;2689;50.954;7.116;2024-02-26T10:34:03;7.00;99.90
5334;DHT22;2689;50.954;7.116;2024-02-26T10:36:46;7.10;99.90
5334;DHT22;2689;50.954;7.116;2024-02-26T10:39:19;7.20;99.90
5334;DHT22;2689;50.954;7.116;2024-02-26T10:42:39;7.20;99.90
5334;DHT22;2689;50.954;7.116;2024-02-26T10:45:25;7.30;99.90
5334;DHT22;2689;50.954;7.116;2024-02-26T10:48:24;7.30;99.90
5334;DHT22;2689;50.954;7.116;2024-02-26T10:54:15;7.30;99.90
5334;DHT22;2689;50.954;7.116;2024-02-26T10:57:07;7.40;99.90
5334;DHT22;2689;50.954;7.116;2024-02-26T11:02:05;7.50;99.90
5334;DHT22;2689;50.954;7.116;2024-02-26T11:05:44;7.50;99.90
5334;DHT22;2689;50.954;7.116;2024-02-26T11:07:06;7.60;99.90
5334;DHT22;2689;50.954;7.116;2024-02-26T11:09:54;7.60;99.90
5334;DHT22;2689;50.954;7.116;2024-02-26T11:13:41;7.70;99.90
5334;DHT22;2689;50.954;7.116;2024-02-26T11:16:08;7.80;99.90
5334;DHT22;2689;50.954;7.116;2024-02-26T11:19:00;7.80;99.90
5334;DHT22;2689;50.954;7.116;2024-02-26T11:21:50;7.80;99.90
5334;DHT22;2689;50.954;7.116;2024-02-26T11:24:18;7.80;99.90
5334;DHT22;2689;50.954;7.116;2024-02-26T11:30:30;7.80;99.90
5334;DHT22;2689;50.954;7.116;2024-02-26T11:33:26;7.90;99.90
5334;DHT22;2689;50.954;7.116;2024-02-26T11:36:01;8.00;99.90
5334;DHT22;2689;50.954;7.116;2024-02-26T11:38:29;8.00;99.90
5334;DHT22;2689;50.954;7.116;2024-02-26T11:40:58;8.00;99.90
5334;DHT22;2689;50.954;7.116;2024-02-26T11:44:10;8.00;99.90
5334;DHT22;2689;50.954;7.116;2024-02-26T11:46:55;8.00;99.90
5334;DHT22;2689;50.954;7.116;2024-02-26T11:49:32;8.00;99.90
5334;DHT22;2689;50.954;7.116;2024-02-26T11:52:10;8.00;99.90
5334;DHT22;2689;50.954;7.116;2024-02-26T11:54:39;8.00;99.90
5334;DHT22;2689;50.954;7.116;2024-02-26T11:57:20;8.00;99.90
5334;DHT22;2689;50.954;7.116;2024-02-26T11:59:47;8.00;99.90
5334;DHT22;2689;50.954;7.116;2024-02-26T12:02:46;8.20;99.90
5334;DHT22;2689;50.954;7.116;2024-02-26T12:05:15;8.40;99.90
5334;DHT22;2689;50.954;7.116;2024-02-26T12:07:45;8.40;99.90
5334;DHT22;2689;50.954;7.116;2024-02-26T12:10:30;8.40;99.90
5334;DHT22;2689;50.954;7.116;2024-02-26T12:13:00;8.40;99.90
5334;DHT22;2689;50.954;7.116;2024-02-26T12:15:32;8.50;99.90
5334;DHT22;2689;50.954;7.116;2024-02-26T12:18:02;8.60;99.90
5334;DHT22;2689;50.954;7.116;2024-02-26T12:20:30;8.70;99.90
5334;DHT22;2689;50.954;7.116;2024-02-26T12:22:57;8.80;99.90
5334;DHT22;2689;50.954;7.116;2024-02-26T12:25:26;8.80;99.90
5334;DHT22;2689;50.954;7.116;2024-02-26T12:27:53;8.90;99.90
5334;DHT22;2689;50.954;7.116;2024-02-26T12:30:21;9.00;99.90
5334;DHT22;2689;50.954;7.116;2024-02-26T12:32:52;8.80;99.90
5334;DHT22;2689;50.954;7.116;2024-02-26T12:35:24;8.90;99.90
5334;DHT22;2689;50.954;7.116;2024-02-26T12:37:53;8.90;99.90
5334;DHT22;2689;50.954;7.116;2024-02-26T12:40:20;8.80;99.90
5334;DHT22;2689;50.954;7.116;2024-02-26T12:42:47;8.90;99.90
5334;DHT22;2689;50.954;7.116;2024-02-26T12:45:19;8.90;99.90
5334;DHT22;2689;50.954;7.116;2024-02-26T12:47:49;9.00;99.90
5334;DHT22;2689;50.954;7.116;2024-02-26T12:50:16;8.80;99.90
5334;DHT22;2689;50.954;7.116;2024-02-26T12:52:46;8.80;99.90
5334;DHT22;2689;50.954;7.116;2024-02-26T12:55:15;8.90;99.90
5334;DHT22;2689;50.954;7.116;2024-02-26T12:57:43;9.00;99.90
5334;DHT22;2689;50.954;7.116;2024-02-26T13:00:12;9.00;99.90
5334;DHT22;2689;50.954;7.116;2024-02-26T13:02:41;9.10;99.90
5334;DHT22;2689;50.954;7.116;2024-02-26T13:05:08;9.20;99.90
5334;DHT22;2689;50.954;7.116;2024-02-26T13:07:40;9.20;99.90
5334;DHT22;2689;50.954;7.116;2024-02-26T13:10:10;9.20;99.90
5334;DHT22;2689;50.954;7.116;2024-02-26T13:12:41;9.40;99.90
5334;DHT22;2689;50.954;7.116;2024-02-26T13:15:14;9.40;99.90
5334;DHT22;2689;50.954;7.116;2024-02-26T13:17:42;9.40;99.90
5334;DHT22;2689;50.954;7.116;2024-02-26T13:20:09;9.50;99.90
5334;DHT22;2689;50.954;7.116;2024-02-26T13:22:36;9.50;99.90
5334;DHT22;2689;50.954;7.116;2024-02-26T13:25:04;9.50;99.90
5334;DHT22;2689;50.954;7.116;2024-02-26T13:27:34;9.30;99.90
5334;DHT22;2689;50.954;7.116;2024-02-26T13:30:06;9.30;99.90
5334;DHT22;2689;50.954;7.116;2024-02-26T13:32:36;9.30;99.90
5334;DHT22;2689;50.954;7.116;2024-02-26T13:35:07;9.30;99.90
5334;DHT22;2689;50.954;7.116;2024-02-26T13:37:34;9.10;99.90
5334;DHT22;2689;50.954;7.116;2024-02-26T13:40:04;9.30;99.90
5334;DHT22;2689;50.954;7.116;2024-02-26T13:42:35;9.20;99.90
5334;DHT22;2689;50.954;7.116;2024-02-26T13:45:04;9.20;99.90
5334;DHT22;2689;50.954;7.116;2024-02-26T13:47:38;9.00;99.90
5334;DHT22;2689;50.954;7.116;2024-02-26T13:50:09;8.90;99.90
5334;DHT22;2689;50.954;7.116;2024-02-26T13:52:36;9.00;99.90
5334;DHT22;2689;50.954;7.116;2024-02-26T13:55:03;9.00;99.90
5334;DHT22;2689;50.954;7.116;2024-02-26T13:57:30;8.90;99.90
5334;DHT22;2689;50.954;7.116;2024-02-26T13:59:59;9.00;99.90
5334;DHT22;2689;50.954;7.116;2024-02-26T14:02:26;9.00;99.90
5334;DHT22;2689;50.954;7.116;2024-02-26T14:04:52;9.00;99.90
5334;DHT22;2689;50.954;7.116;2024-02-26T14:07:19;9.10;99.90
5334;DHT22;2689;50.954;7.116;2024-02-26T14:09:46;9.20;99.90
5334;DHT22;2689;50.954;7.116;2024-02-26T14:12:13;9.10;99.90
5334;DHT22;2689;50.954;7.116;2024-02-26T14:14:42;9.00;99.90
5334;DHT22;2689;50.954;7.116;2024-02-26T14:17:12;9.00;99.90
5334;DHT22;2689;50.954;7.116;2024-02-26T14:19:41;9.00;99.90
5334;DHT22;2689;50.954;7.116;2024-02-26T14:22:15;8.90;99.90
5334;DHT22;2689;50.954;7.116;2024-02-26T14:24:42;8.90;99.90
5334;DHT22;2689;50.954;7.116;2024-02-26T14:27:12;8.90;99.90
5334;DHT22;2689;50.954;7.116;2024-02-26T14:33:32;9.10;99.90
5334;DHT22;2689;50.954;7.116;2024-02-26T14:36:20;9.30;99.90
5334;DHT22;2689;50.954;7.116;2024-02-26T14:39:16;9.50;99.90
5334;DHT22;2689;50.954;7.116;2024-02-26T14:41:46;9.50;99.90
5334;DHT22;2689;50.954;7.116;2024-02-26T15:01:22;9.80;99.90
5334;DHT22;2689;50.954;7.116;2024-02-26T15:04:00;9.50;99.90
5334;DHT22;2689;50.954;7.116;2024-02-26T15:06:27;9.50;99.90
5334;DHT22;2689;50.954;7.116;2024-02-26T15:38:35;9.50;99.90
5334;DHT22;2689;50.954;7.116;2024-02-26T15:41:02;9.60;99.90
5334;DHT22;2689;50.954;7.116;2024-02-26T15:43:32;9.70;99.90
5334;DHT22;2689;50.954;7.116;2024-02-26T15:46:01;9.80;99.90
5334;DHT22;2689;50.954;7.116;2024-02-26T15:48:29;9.90;99.90
5334;DHT22;2689;50.954;7.116;2024-02-26T15:50:57;9.90;99.90
5334;DHT22;2689;50.954;7.116;2024-02-26T15:53:25;10.00;99.90
5334;DHT22;2689;50.954;7.116;2024-02-26T15:55:59;10.00;99.90
5334;DHT22;2689;50.954;7.116;2024-02-26T15:58:27;10.00;99.90
5334;DHT22;2689;50.954;7.116;2024-02-26T16:00:54;10.10;99.90
5334;DHT22;2689;50.954;7.116;2024-02-26T16:03:22;10.00;99.90
5334;DHT22;2689;50.954;7.116;2024-02-26T16:05:49;10.00;99.90
5334;DHT22;2689;50.954;7.116;2024-02-26T16:08:20;10.00;99.90
5334;DHT22;2689;50.954;7.116;2024-02-26T16:10:48;10.00;99.90
5334;DHT22;2689;50.954;7.116;2024-02-26T16:13:17;10.00;99.90
5334;DHT22;2689;50.954;7.116;2024-02-26T16:15:51;10.00;99.90
5334;DHT22;2689;50.954;7.116;2024-02-26T16:18:22;10.00;99.90
5334;DHT22;2689;50.954;7.116;2024-02-26T16:21:12;9.90;99.90
5334;DHT22;2689;50.954;7.116;2024-02-26T16:23:51;9.90;99.90
5334;DHT22;2689;50.954;7.116;2024-02-26T16:27:00;9.70;99.90
5334;DHT22;2689;50.954;7.116;2024-02-26T16:29:42;9.60;99.90
5334;DHT22;2689;50.954;7.116;2024-02-26T16:32:10;9.60;99.90
5334;DHT22;2689;50.954;7.116;2024-02-26T16:34:51;9.50;99.90
5334;DHT22;2689;50.954;7.116;2024-02-26T16:37:20;9.40;99.90
5334;DHT22;2689;50.954;7.116;2024-02-26T16:39:47;9.50;99.90
5334;DHT22;2689;50.954;7.116;2024-02-26T16:42:16;9.40;99.90
5334;DHT22;2689;50.954;7.116;2024-02-26T16:44:44;9.50;99.90
5334;DHT22;2689;50.954;7.116;2024-02-26T16:47:12;9.50;99.90
5334;DHT22;2689;50.954;7.116;2024-02-26T16:49:39;9.40;99.90
5334;DHT22;2689;50.954;7.116;2024-02-26T16:52:06;9.50;99.90
5334;DHT22;2689;50.954;7.116;2024-02-26T16:54:33;9.50;99.90
5334;DHT22;2689;50.954;7.116;2024-02-26T16:57:01;9.30;99.90
5334;DHT22;2689;50.954;7.116;2024-02-26T16:59:31;9.30;99.90
5334;DHT22;2689;50.954;7.116;2024-02-26T17:02:00;9.20;99.90
5334;DHT22;2689;50.954;7.116;2024-02-26T17:04:27;9.30;99.90
5334;DHT22;2689;50.954;7.116;2024-02-26T17:06:56;9.30;99.90
5334;DHT22;2689;50.954;7.116;2024-02-26T17:09:23;9.20;99.90
5334;DHT22;2689;50.954;7.116;2024-02-26T17:11:50;9.30;99.90
5334;DHT22;2689;50.954;7.116;2024-02-26T17:14:18;9.30;99.90
5334;DHT22;2689;50.954;7.116;2024-02-26T17:16:47;9.20;99.90
5334;DHT22;2689;50.954;7.116;2024-02-26T17:19:15;9.20;99.90
5334;DHT22;2689;50.954;7.116;2024-02-26T17:21:43;9.10;99.90
5334;DHT22;2689;50.954;7.116;2024-02-26T17:24:09;9.10;99.90
5334;DHT22;2689;50.954;7.116;2024-02-26T17:26:36;9.00;99.90
5334;DHT22;2689;50.954;7.116;2024-02-26T17:29:04;8.90;99.90
5334;DHT22;2689;50.954;7.116;2024-02-26T17:31:31;9.00;99.90
5334;DHT22;2689;50.954;7.116;2024-02-26T17:34:00;8.90;99.90
5334;DHT22;2689;50.954;7.116;2024-02-26T17:36:31;8.90;99.90
5334;DHT22;2689;50.954;7.116;2024-02-26T17:38:58;8.90;99.90
5334;DHT22;2689;50.954;7.116;2024-02-26T17:41:25;8.80;99.90
5334;DHT22;2689;50.954;7.116;2024-02-26T17:44:06;8.80;99.90
5334;DHT22;2689;50.954;7.116;2024-02-26T17:46:33;8.80;99.90
5334;DHT22;2689;50.954;7.116;2024-02-26T17:49:02;8.70;99.90
5334;DHT22;2689;50.954;7.116;2024-02-26T17:51:36;8.60;99.90
5334;DHT22;2689;50.954;7.116;2024-02-26T17:54:06;8.70;99.90
5334;DHT22;2689;50.954;7.116;2024-02-26T17:56:39;8.70;99.90
5334;DHT22;2689;50.954;7.116;2024-02-26T17:59:06;8.70;99.90
5334;DHT22;2689;50.954;7.116;2024-02-26T18:01:37;8.60;99.90
5334;DHT22;2689;50.954;7.116;2024-02-26T18:04:04;8.60;99.90
5334;DHT22;2689;50.954;7.116;2024-02-26T18:06:33;8.60;99.90
5334;DHT22;2689;50.954;7.116;2024-02-26T18:09:01;8.50;99.90
5334;DHT22;2689;50.954;7.116;2024-02-26T18:11:30;8.60;99.90
5334;DHT22;2689;50.954;7.116;2024-02-26T18:14:00;8.50;99.90
5334;DHT22;2689;50.954;7.116;2024-02-26T18:16:28;8.50;99.90
5334;DHT22;2689;50.954;7.116;2024-02-26T18:18:57;8.50;99.90
5334;DHT22;2689;50.954;7.116;2024-02-26T18:21:27;8.50;99.90
5334;DHT22;2689;50.954;7.116;2024-02-26T18:23:55;8.50;99.90
5334;DHT22;2689;50.954;7.116;2024-02-26T18:26:24;8.50;99.90
5334;DHT22;2689;50.954;7.116;2024-02-26T18:28:51;8.50;99.90
5334;DHT22;2689;50.954;7.116;2024-02-26T18:31:18;8.40;99.90
5334;DHT22;2689;50.954;7.116;2024-02-26T18:33:46;8.40;99.90
5334;DHT22;2689;50.954;7.116;2024-02-26T18:36:21;8.40;99.90